sensor_id;sensor_type;location;lat;lon;timestamp;P1;durP1;ratioP1;P2;durP2;ratioP2
13244;SDS011;6689;53.400;12.486;2023-06-22T00:00:25;4.75;;;3.25;;
13244;SDS011;6689;53.400;12.486;2023-06-22T00:02:52;5.68;;;3.78;;
13244;SDS011;6689;53.400;12.486;2023-06-22T00:05:20;6.18;;;3.88;;
13244;SDS011;6689;53.400;12.486;2023-06-22T00:07:47;6.28;;;4.30;;
13244;SDS011;6689;53.400;12.486;2023-06-22T00:10:14;6.63;;;4.95;;
13244;SDS011;6689;53.400;12.486;2023-06-22T00:12:41;4.28;;;3.83;;
13244;SDS011;6689;53.400;12.486;2023-06-22T00:15:09;7.53;;;3.85;;
13244;SDS011;6689;53.400;12.486;2023-06-22T00:17:39;4.30;;;3.90;;
13244;SDS011;6689;53.400;12.486;2023-06-22T00:20:07;5.55;;;4.22;;
13244;SDS011;6689;53.400;12.486;2023-06-22T00:22:35;4.70;;;4.22;;
13244;SDS011;6689;53.400;12.486;2023-06-22T00:25:05;8.57;;;4.25;;
13244;SDS011;6689;53.400;12.486;2023-06-22T00:27:33;4.13;;;3.70;;
13244;SDS011;6689;53.400;12.486;2023-06-22T00:30:00;7.75;;;4.40;;
13244;SDS011;6689;53.400;12.486;2023-06-22T00:32:28;5.45;;;4.05;;
13244;SDS011;6689;53.400;12.486;2023-06-22T00:34:57;4.85;;;3.30;;
13244;SDS011;6689;53.400;12.486;2023-06-22T00:37:25;5.38;;;4.10;;
13244;SDS011;6689;53.400;12.486;2023-06-22T00:39:54;5.47;;;3.70;;
13244;SDS011;6689;53.400;12.486;2023-06-22T00:42:22;6.07;;;4.22;;
13244;SDS011;6689;53.400;12.486;2023-06-22T00:44:49;7.28;;;4.53;;
13244;SDS011;6689;53.400;12.486;2023-06-22T00:47:17;4.85;;;4.13;;
13244;SDS011;6689;53.400;12.486;2023-06-22T00:49:45;4.95;;;3.60;;
13244;SDS011;6689;53.400;12.486;2023-06-22T00:52:17;6.97;;;4.47;;
13244;SDS011;6689;53.400;12.486;2023-06-22T00:54:46;5.18;;;4.50;;
13244;SDS011;6689;53.400;12.486;2023-06-22T00:57:15;5.68;;;3.95;;
13244;SDS011;6689;53.400;12.486;2023-06-22T00:59:44;6.20;;;4.35;;
13244;SDS011;6689;53.400;12.486;2023-06-22T01:02:11;7.72;;;4.60;;
13244;SDS011;6689;53.400;12.486;2023-06-22T01:04:39;5.40;;;4.90;;
13244;SDS011;6689;53.400;12.486;2023-06-22T01:07:08;7.05;;;4.88;;
13244;SDS011;6689;53.400;12.486;2023-06-22T01:09:49;5.40;;;4.90;;
13244;SDS011;6689;53.400;12.486;2023-06-22T01:12:23;5.60;;;5.05;;
13244;SDS011;6689;53.400;12.486;2023-06-22T01:14:57;5.68;;;4.28;;
13244;SDS011;6689;53.400;12.486;2023-06-22T01:17:29;5.93;;;4.45;;
13244;SDS011;6689;53.400;12.486;2023-06-22T01:19:58;5.03;;;4.53;;
13244;SDS011;6689;53.400;12.486;2023-06-22T01:22:31;7.15;;;4.85;;
13244;SDS011;6689;53.400;12.486;2023-06-22T01:25:08;10.68;;;5.05;;
13244;SDS011;6689;53.400;12.486;2023-06-22T01:27:39;5.72;;;4.90;;
13244;SDS011;6689;53.400;12.486;2023-06-22T01:30:15;10.80;;;4.90;;
13244;SDS011;6689;53.400;12.486;2023-06-22T01:32:44;4.63;;;4.22;;
13244;SDS011;6689;53.400;12.486;2023-06-22T01:35:13;8.13;;;5.38;;
13244;SDS011;6689;53.400;12.486;2023-06-22T01:37:42;9.68;;;4.95;;
13244;SDS011;6689;53.400;12.486;2023-06-22T01:40:09;5.68;;;5.05;;
13244;SDS011;6689;53.400;12.486;2023-06-22T01:42:37;8.02;;;5.18;;
13244;SDS011;6689;53.400;12.486;2023-06-22T01:45:05;9.80;;;6.35;;
13244;SDS011;6689;53.400;12.486;2023-06-22T01:47:36;5.75;;;5.25;;
13244;SDS011;6689;53.400;12.486;2023-06-22T01:50:04;7.60;;;6.50;;
13244;SDS011;6689;53.400;12.486;2023-06-22T01:52:32;6.63;;;5.82;;
13244;SDS011;6689;53.400;12.486;2023-06-22T01:55:00;6.60;;;5.80;;
13244;SDS011;6689;53.400;12.486;2023-06-22T01:57:27;6.55;;;5.63;;
13244;SDS011;6689;53.400;12.486;2023-06-22T01:59:57;7.90;;;5.82;;
13244;SDS011;6689;53.400;12.486;2023-06-22T02:02:28;6.82;;;6.13;;
13244;SDS011;6689;53.400;12.486;2023-06-22T02:05:01;10.85;;;5.85;;
13244;SDS011;6689;53.400;12.486;2023-06-22T02:07:34;6.43;;;5.20;;
13244;SDS011;6689;53.400;12.486;2023-06-22T02:10:08;9.25;;;5.70;;
13244;SDS011;6689;53.400;12.486;2023-06-22T02:12:37;6.70;;;5.97;;
13244;SDS011;6689;53.400;12.486;2023-06-22T02:15:06;9.18;;;5.88;;
13244;SDS011;6689;53.400;12.486;2023-06-22T02:17:35;11.43;;;5.65;;
13244;SDS011;6689;53.400;12.486;2023-06-22T02:20:04;9.95;;;6.68;;
13244;SDS011;6689;53.400;12.486;2023-06-22T02:22:33;8.05;;;6.13;;
13244;SDS011;6689;53.400;12.486;2023-06-22T02:25:01;9.48;;;5.47;;
13244;SDS011;6689;53.400;12.486;2023-06-22T02:27:30;10.13;;;5.55;;
13244;SDS011;6689;53.400;12.486;2023-06-22T02:29:57;7.88;;;5.38;;
13244;SDS011;6689;53.400;12.486;2023-06-22T02:32:25;8.43;;;5.32;;
13244;SDS011;6689;53.400;12.486;2023-06-22T02:34:52;6.53;;;5.80;;
13244;SDS011;6689;53.400;12.486;2023-06-22T02:37:21;7.50;;;6.03;;
13244;SDS011;6689;53.400;12.486;2023-06-22T02:39:50;7.00;;;6.40;;
13244;SDS011;6689;53.400;12.486;2023-06-22T02:42:17;9.25;;;5.38;;
13244;SDS011;6689;53.400;12.486;2023-06-22T02:44:46;8.68;;;5.78;;
13244;SDS011;6689;53.400;12.486;2023-06-22T02:47:13;10.52;;;6.18;;
13244;SDS011;6689;53.400;12.486;2023-06-22T02:49:41;8.93;;;6.47;;
13244;SDS011;6689;53.400;12.486;2023-06-22T02:52:10;13.23;;;6.90;;
13244;SDS011;6689;53.400;12.486;2023-06-22T02:54:38;7.50;;;6.22;;
13244;SDS011;6689;53.400;12.486;2023-06-22T02:57:06;7.85;;;6.40;;
13244;SDS011;6689;53.400;12.486;2023-06-22T02:59:39;9.20;;;6.82;;
13244;SDS011;6689;53.400;12.486;2023-06-22T03:02:16;7.93;;;7.13;;
13244;SDS011;6689;53.400;12.486;2023-06-22T03:04:46;7.75;;;6.80;;
13244;SDS011;6689;53.400;12.486;2023-06-22T03:07:14;8.30;;;7.00;;
13244;SDS011;6689;53.400;12.486;2023-06-22T03:09:43;10.30;;;7.30;;
13244;SDS011;6689;53.400;12.486;2023-06-22T03:12:11;7.63;;;6.85;;
13244;SDS011;6689;53.400;12.486;2023-06-22T03:14:38;7.05;;;6.38;;
13244;SDS011;6689;53.400;12.486;2023-06-22T03:17:05;6.60;;;6.00;;
13244;SDS011;6689;53.400;12.486;2023-06-22T03:19:32;7.65;;;6.80;;
13244;SDS011;6689;53.400;12.486;2023-06-22T03:22:00;7.28;;;6.55;;
13244;SDS011;6689;53.400;12.486;2023-06-22T03:24:27;9.48;;;7.72;;
13244;SDS011;6689;53.400;12.486;2023-06-22T03:26:56;11.60;;;7.63;;
13244;SDS011;6689;53.400;12.486;2023-06-22T03:29:24;8.25;;;7.45;;
13244;SDS011;6689;53.400;12.486;2023-06-22T03:31:51;8.23;;;6.97;;
13244;SDS011;6689;53.400;12.486;2023-06-22T03:34:18;8.30;;;6.43;;
13244;SDS011;6689;53.400;12.486;2023-06-22T03:36:45;8.65;;;7.57;;
13244;SDS011;6689;53.400;12.486;2023-06-22T03:39:13;6.93;;;6.25;;
13244;SDS011;6689;53.400;12.486;2023-06-22T03:41:40;6.75;;;5.70;;
13244;SDS011;6689;53.400;12.486;2023-06-22T03:44:09;8.93;;;6.65;;
13244;SDS011;6689;53.400;12.486;2023-06-22T03:46:37;6.97;;;6.18;;
13244;SDS011;6689;53.400;12.486;2023-06-22T03:49:04;6.80;;;6.18;;
13244;SDS011;6689;53.400;12.486;2023-06-22T03:51:32;5.85;;;5.25;;
13244;SDS011;6689;53.400;12.486;2023-06-22T03:53:59;5.85;;;5.35;;
13244;SDS011;6689;53.400;12.486;2023-06-22T03:56:27;5.53;;;5.03;;
13244;SDS011;6689;53.400;12.486;2023-06-22T03:58:54;7.38;;;6.57;;
13244;SDS011;6689;53.400;12.486;2023-06-22T04:01:23;7.65;;;6.80;;
13244;SDS011;6689;53.400;12.486;2023-06-22T04:03:50;7.80;;;6.97;;
13244;SDS011;6689;53.400;12.486;2023-06-22T04:06:17;8.90;;;6.57;;
13244;SDS011;6689;53.400;12.486;2023-06-22T04:08:45;6.97;;;6.35;;
13244;SDS011;6689;53.400;12.486;2023-06-22T04:11:16;7.15;;;6.45;;
13244;SDS011;6689;53.400;12.486;2023-06-22T04:13:43;8.75;;;5.95;;
13244;SDS011;6689;53.400;12.486;2023-06-22T04:16:11;6.20;;;5.53;;
13244;SDS011;6689;53.400;12.486;2023-06-22T04:18:39;6.45;;;5.80;;
13244;SDS011;6689;53.400;12.486;2023-06-22T04:21:07;6.60;;;5.80;;
13244;SDS011;6689;53.400;12.486;2023-06-22T04:23:34;6.18;;;5.57;;
13244;SDS011;6689;53.400;12.486;2023-06-22T04:26:01;7.32;;;5.05;;
13244;SDS011;6689;53.400;12.486;2023-06-22T04:28:28;6.28;;;5.20;;
13244;SDS011;6689;53.400;12.486;2023-06-22T04:31:00;6.63;;;5.65;;
13244;SDS011;6689;53.400;12.486;2023-06-22T04:33:27;9.73;;;5.40;;
13244;SDS011;6689;53.400;12.486;2023-06-22T04:35:57;7.68;;;5.43;;
13244;SDS011;6689;53.400;12.486;2023-06-22T04:38:26;7.32;;;6.13;;
13244;SDS011;6689;53.400;12.486;2023-06-22T04:40:53;8.68;;;5.60;;
13244;SDS011;6689;53.400;12.486;2023-06-22T04:43:20;11.30;;;6.95;;
13244;SDS011;6689;53.400;12.486;2023-06-22T04:45:48;8.40;;;6.13;;
13244;SDS011;6689;53.400;12.486;2023-06-22T04:48:17;7.68;;;6.68;;
13244;SDS011;6689;53.400;12.486;2023-06-22T04:50:44;7.82;;;6.97;;
13244;SDS011;6689;53.400;12.486;2023-06-22T04:53:13;12.35;;;8.25;;
13244;SDS011;6689;53.400;12.486;2023-06-22T04:55:40;8.68;;;7.88;;
13244;SDS011;6689;53.400;12.486;2023-06-22T04:58:10;9.15;;;8.25;;
13244;SDS011;6689;53.400;12.486;2023-06-22T05:00:38;10.65;;;8.18;;
13244;SDS011;6689;53.400;12.486;2023-06-22T05:03:05;10.05;;;9.05;;
13244;SDS011;6689;53.400;12.486;2023-06-22T05:05:36;9.88;;;8.35;;
13244;SDS011;6689;53.400;12.486;2023-06-22T05:08:03;9.52;;;8.63;;
13244;SDS011;6689;53.400;12.486;2023-06-22T05:10:33;13.52;;;9.02;;
13244;SDS011;6689;53.400;12.486;2023-06-22T05:13:00;9.75;;;8.85;;
13244;SDS011;6689;53.400;12.486;2023-06-22T05:15:28;12.98;;;9.20;;
13244;SDS011;6689;53.400;12.486;2023-06-22T05:17:58;11.32;;;8.95;;
13244;SDS011;6689;53.400;12.486;2023-06-22T05:20:29;9.18;;;8.27;;
13244;SDS011;6689;53.400;12.486;2023-06-22T05:22:56;16.13;;;9.15;;
13244;SDS011;6689;53.400;12.486;2023-06-22T05:25:23;9.77;;;8.77;;
13244;SDS011;6689;53.400;12.486;2023-06-22T05:27:53;9.50;;;8.20;;
13244;SDS011;6689;53.400;12.486;2023-06-22T05:30:20;10.43;;;8.80;;
13244;SDS011;6689;53.400;12.486;2023-06-22T05:32:47;9.80;;;8.32;;
13244;SDS011;6689;53.400;12.486;2023-06-22T05:35:15;11.45;;;8.93;;
13244;SDS011;6689;53.400;12.486;2023-06-22T05:37:42;12.23;;;8.38;;
13244;SDS011;6689;53.400;12.486;2023-06-22T05:40:10;10.60;;;7.82;;
13244;SDS011;6689;53.400;12.486;2023-06-22T05:42:38;9.75;;;8.35;;
13244;SDS011;6689;53.400;12.486;2023-06-22T05:45:07;8.80;;;7.90;;
13244;SDS011;6689;53.400;12.486;2023-06-22T05:47:35;8.73;;;7.78;;
13244;SDS011;6689;53.400;12.486;2023-06-22T05:50:03;13.75;;;7.75;;
13244;SDS011;6689;53.400;12.486;2023-06-22T05:52:33;10.77;;;7.55;;
13244;SDS011;6689;53.400;12.486;2023-06-22T05:55:01;8.65;;;7.57;;
13244;SDS011;6689;53.400;12.486;2023-06-22T05:57:29;8.00;;;7.30;;
13244;SDS011;6689;53.400;12.486;2023-06-22T05:59:56;8.63;;;7.18;;
13244;SDS011;6689;53.400;12.486;2023-06-22T06:02:25;9.80;;;7.28;;
13244;SDS011;6689;53.400;12.486;2023-06-22T06:04:52;10.02;;;6.20;;
13244;SDS011;6689;53.400;12.486;2023-06-22T06:07:19;9.10;;;6.32;;
13244;SDS011;6689;53.400;12.486;2023-06-22T06:09:46;8.88;;;5.82;;
13244;SDS011;6689;53.400;12.486;2023-06-22T06:12:14;7.45;;;6.10;;
13244;SDS011;6689;53.400;12.486;2023-06-22T06:14:41;7.32;;;6.00;;
13244;SDS011;6689;53.400;12.486;2023-06-22T06:17:08;8.30;;;6.07;;
13244;SDS011;6689;53.400;12.486;2023-06-22T06:19:37;7.03;;;5.15;;
13244;SDS011;6689;53.400;12.486;2023-06-22T06:22:04;6.88;;;5.80;;
13244;SDS011;6689;53.400;12.486;2023-06-22T06:24:31;7.53;;;4.82;;
13244;SDS011;6689;53.400;12.486;2023-06-22T06:26:58;6.30;;;4.55;;
13244;SDS011;6689;53.400;12.486;2023-06-22T06:29:28;6.70;;;4.82;;
13244;SDS011;6689;53.400;12.486;2023-06-22T06:31:56;6.80;;;5.15;;
13244;SDS011;6689;53.400;12.486;2023-06-22T06:34:23;7.95;;;4.97;;
13244;SDS011;6689;53.400;12.486;2023-06-22T06:36:51;6.75;;;5.25;;
13244;SDS011;6689;53.400;12.486;2023-06-22T06:39:19;7.07;;;4.50;;
13244;SDS011;6689;53.400;12.486;2023-06-22T06:41:46;7.65;;;5.35;;
13244;SDS011;6689;53.400;12.486;2023-06-22T06:44:13;7.20;;;4.30;;
13244;SDS011;6689;53.400;12.486;2023-06-22T06:46:41;5.78;;;4.75;;
13244;SDS011;6689;53.400;12.486;2023-06-22T06:49:08;7.55;;;5.18;;
13244;SDS011;6689;53.400;12.486;2023-06-22T06:51:35;9.30;;;5.13;;
13244;SDS011;6689;53.400;12.486;2023-06-22T06:54:04;6.43;;;4.72;;
13244;SDS011;6689;53.400;12.486;2023-06-22T06:56:31;7.63;;;4.20;;
13244;SDS011;6689;53.400;12.486;2023-06-22T06:58:59;5.88;;;4.22;;
13244;SDS011;6689;53.400;12.486;2023-06-22T07:01:26;6.57;;;4.38;;
13244;SDS011;6689;53.400;12.486;2023-06-22T07:03:58;5.85;;;3.42;;
13244;SDS011;6689;53.400;12.486;2023-06-22T07:06:25;8.10;;;4.32;;
13244;SDS011;6689;53.400;12.486;2023-06-22T07:08:57;9.95;;;4.80;;
13244;SDS011;6689;53.400;12.486;2023-06-22T07:11:26;5.28;;;4.15;;
13244;SDS011;6689;53.400;12.486;2023-06-22T07:13:53;6.03;;;3.60;;
13244;SDS011;6689;53.400;12.486;2023-06-22T07:16:20;4.72;;;4.00;;
13244;SDS011;6689;53.400;12.486;2023-06-22T07:18:48;6.07;;;4.18;;
13244;SDS011;6689;53.400;12.486;2023-06-22T07:21:16;5.55;;;4.00;;
13244;SDS011;6689;53.400;12.486;2023-06-22T07:23:43;7.13;;;4.38;;
13244;SDS011;6689;53.400;12.486;2023-06-22T07:26:10;5.85;;;5.25;;
13244;SDS011;6689;53.400;12.486;2023-06-22T07:28:39;7.13;;;4.47;;
13244;SDS011;6689;53.400;12.486;2023-06-22T07:31:06;7.47;;;4.03;;
13244;SDS011;6689;53.400;12.486;2023-06-22T07:33:34;6.10;;;3.83;;
13244;SDS011;6689;53.400;12.486;2023-06-22T07:36:01;7.07;;;4.00;;
13244;SDS011;6689;53.400;12.486;2023-06-22T07:38:32;5.50;;;3.78;;
13244;SDS011;6689;53.400;12.486;2023-06-22T07:41:00;5.15;;;3.97;;
13244;SDS011;6689;53.400;12.486;2023-06-22T07:43:30;5.55;;;3.53;;
13244;SDS011;6689;53.400;12.486;2023-06-22T07:45:59;4.97;;;3.20;;
13244;SDS011;6689;53.400;12.486;2023-06-22T07:48:27;10.30;;;4.65;;
13244;SDS011;6689;53.400;12.486;2023-06-22T07:50:54;6.35;;;3.85;;
13244;SDS011;6689;53.400;12.486;2023-06-22T07:53:22;5.68;;;4.13;;
13244;SDS011;6689;53.400;12.486;2023-06-22T07:55:49;4.93;;;4.40;;
13244;SDS011;6689;53.400;12.486;2023-06-22T07:58:16;5.18;;;4.28;;
13244;SDS011;6689;53.400;12.486;2023-06-22T08:00:45;6.85;;;4.28;;
13244;SDS011;6689;53.400;12.486;2023-06-22T08:03:15;5.15;;;4.65;;
13244;SDS011;6689;53.400;12.486;2023-06-22T08:05:42;8.48;;;4.53;;
13244;SDS011;6689;53.400;12.486;2023-06-22T08:08:09;8.63;;;5.05;;
13244;SDS011;6689;53.400;12.486;2023-06-22T08:10:37;6.70;;;4.68;;
13244;SDS011;6689;53.400;12.486;2023-06-22T08:13:04;7.53;;;5.00;;
13244;SDS011;6689;53.400;12.486;2023-06-22T08:15:34;8.40;;;5.68;;
13244;SDS011;6689;53.400;12.486;2023-06-22T08:18:01;7.25;;;4.90;;
13244;SDS011;6689;53.400;12.486;2023-06-22T08:20:30;6.45;;;4.80;;
13244;SDS011;6689;53.400;12.486;2023-06-22T08:22:57;6.25;;;5.05;;
13244;SDS011;6689;53.400;12.486;2023-06-22T08:25:31;6.93;;;5.47;;
13244;SDS011;6689;53.400;12.486;2023-06-22T08:27:59;6.68;;;4.78;;
13244;SDS011;6689;53.400;12.486;2023-06-22T08:30:26;8.40;;;4.53;;
13244;SDS011;6689;53.400;12.486;2023-06-22T08:32:54;8.25;;;4.47;;
13244;SDS011;6689;53.400;12.486;2023-06-22T08:35:21;9.85;;;5.05;;
13244;SDS011;6689;53.400;12.486;2023-06-22T08:37:50;5.68;;;4.45;;
13244;SDS011;6689;53.400;12.486;2023-06-22T08:40:20;6.90;;;4.30;;
13244;SDS011;6689;53.400;12.486;2023-06-22T08:42:48;7.25;;;4.20;;
13244;SDS011;6689;53.400;12.486;2023-06-22T08:45:16;5.57;;;3.70;;
13244;SDS011;6689;53.400;12.486;2023-06-22T08:47:43;5.75;;;4.25;;
13244;SDS011;6689;53.400;12.486;2023-06-22T08:50:11;4.35;;;3.95;;
13244;SDS011;6689;53.400;12.486;2023-06-22T08:52:39;4.93;;;3.95;;
13244;SDS011;6689;53.400;12.486;2023-06-22T08:55:09;7.03;;;4.00;;
13244;SDS011;6689;53.400;12.486;2023-06-22T08:57:37;3.92;;;3.40;;
13244;SDS011;6689;53.400;12.486;2023-06-22T09:00:05;4.78;;;3.90;;
13244;SDS011;6689;53.400;12.486;2023-06-22T09:02:41;4.97;;;3.60;;
13244;SDS011;6689;53.400;12.486;2023-06-22T09:05:09;6.93;;;3.47;;
13244;SDS011;6689;53.400;12.486;2023-06-22T09:07:36;6.70;;;3.20;;
13244;SDS011;6689;53.400;12.486;2023-06-22T09:10:03;6.88;;;3.75;;
13244;SDS011;6689;53.400;12.486;2023-06-22T09:12:35;4.55;;;3.42;;
13244;SDS011;6689;53.400;12.486;2023-06-22T09:15:03;6.32;;;3.55;;
13244;SDS011;6689;53.400;12.486;2023-06-22T09:17:32;4.00;;;3.10;;
13244;SDS011;6689;53.400;12.486;2023-06-22T09:20:01;5.40;;;4.00;;
13244;SDS011;6689;53.400;12.486;2023-06-22T09:22:30;4.88;;;3.60;;
13244;SDS011;6689;53.400;12.486;2023-06-22T09:24:58;4.90;;;4.40;;
13244;SDS011;6689;53.400;12.486;2023-06-22T09:27:26;5.55;;;3.70;;
13244;SDS011;6689;53.400;12.486;2023-06-22T09:29:54;6.97;;;3.53;;
13244;SDS011;6689;53.400;12.486;2023-06-22T09:32:23;6.28;;;3.42;;
13244;SDS011;6689;53.400;12.486;2023-06-22T09:34:51;4.93;;;3.65;;
13244;SDS011;6689;53.400;12.486;2023-06-22T09:37:18;5.57;;;3.70;;
13244;SDS011;6689;53.400;12.486;2023-06-22T09:39:45;6.10;;;3.95;;
13244;SDS011;6689;53.400;12.486;2023-06-22T09:42:12;6.63;;;3.30;;
13244;SDS011;6689;53.400;12.486;2023-06-22T09:44:40;5.60;;;3.58;;
13244;SDS011;6689;53.400;12.486;2023-06-22T09:47:08;4.15;;;3.33;;
13244;SDS011;6689;53.400;12.486;2023-06-22T09:49:36;5.72;;;3.88;;
13244;SDS011;6689;53.400;12.486;2023-06-22T09:52:03;6.07;;;4.05;;
13244;SDS011;6689;53.400;12.486;2023-06-22T09:54:31;5.30;;;3.83;;
13244;SDS011;6689;53.400;12.486;2023-06-22T09:56:58;4.20;;;3.75;;
13244;SDS011;6689;53.400;12.486;2023-06-22T09:59:26;5.25;;;3.88;;
13244;SDS011;6689;53.400;12.486;2023-06-22T10:01:53;6.10;;;4.13;;
13244;SDS011;6689;53.400;12.486;2023-06-22T10:04:21;5.45;;;3.80;;
13244;SDS011;6689;53.400;12.486;2023-06-22T10:06:49;7.32;;;4.00;;
13244;SDS011;6689;53.400;12.486;2023-06-22T10:09:17;4.82;;;4.10;;
13244;SDS011;6689;53.400;12.486;2023-06-22T10:11:44;4.25;;;3.35;;
13244;SDS011;6689;53.400;12.486;2023-06-22T10:14:11;4.20;;;3.67;;
13244;SDS011;6689;53.400;12.486;2023-06-22T10:16:40;5.13;;;4.15;;
13244;SDS011;6689;53.400;12.486;2023-06-22T10:19:07;5.10;;;3.70;;
13244;SDS011;6689;53.400;12.486;2023-06-22T10:21:36;8.65;;;4.00;;
13244;SDS011;6689;53.400;12.486;2023-06-22T10:24:04;7.65;;;4.80;;
13244;SDS011;6689;53.400;12.486;2023-06-22T10:26:32;6.22;;;4.40;;
13244;SDS011;6689;53.400;12.486;2023-06-22T10:29:00;5.90;;;4.78;;
13244;SDS011;6689;53.400;12.486;2023-06-22T10:31:27;5.28;;;4.30;;
13244;SDS011;6689;53.400;12.486;2023-06-22T10:33:55;4.63;;;3.70;;
13244;SDS011;6689;53.400;12.486;2023-06-22T10:36:22;4.28;;;3.72;;
13244;SDS011;6689;53.400;12.486;2023-06-22T10:38:51;4.35;;;3.50;;
13244;SDS011;6689;53.400;12.486;2023-06-22T10:41:19;5.68;;;4.38;;
13244;SDS011;6689;53.400;12.486;2023-06-22T10:43:46;5.00;;;3.85;;
13244;SDS011;6689;53.400;12.486;2023-06-22T10:46:15;6.15;;;3.50;;
13244;SDS011;6689;53.400;12.486;2023-06-22T10:48:42;4.28;;;3.75;;
13244;SDS011;6689;53.400;12.486;2023-06-22T10:51:09;3.83;;;3.42;;
13244;SDS011;6689;53.400;12.486;2023-06-22T10:53:36;5.40;;;4.38;;
13244;SDS011;6689;53.400;12.486;2023-06-22T10:56:05;4.25;;;3.72;;
13244;SDS011;6689;53.400;12.486;2023-06-22T10:58:32;4.72;;;4.10;;
13244;SDS011;6689;53.400;12.486;2023-06-22T11:00:59;6.90;;;4.50;;
13244;SDS011;6689;53.400;12.486;2023-06-22T11:03:28;9.48;;;4.15;;
13244;SDS011;6689;53.400;12.486;2023-06-22T11:05:55;3.90;;;3.47;;
13244;SDS011;6689;53.400;12.486;2023-06-22T11:08:23;5.75;;;4.22;;
13244;SDS011;6689;53.400;12.486;2023-06-22T11:10:51;5.13;;;3.90;;
13244;SDS011;6689;53.400;12.486;2023-06-22T11:13:19;4.90;;;3.80;;
13244;SDS011;6689;53.400;12.486;2023-06-22T11:15:47;5.85;;;3.35;;
13244;SDS011;6689;53.400;12.486;2023-06-22T11:18:14;6.18;;;3.42;;
13244;SDS011;6689;53.400;12.486;2023-06-22T11:20:42;5.00;;;4.47;;
13244;SDS011;6689;53.400;12.486;2023-06-22T11:23:09;6.07;;;4.38;;
13244;SDS011;6689;53.400;12.486;2023-06-22T11:25:37;4.28;;;3.88;;
13244;SDS011;6689;53.400;12.486;2023-06-22T11:28:05;5.22;;;4.72;;
13244;SDS011;6689;53.400;12.486;2023-06-22T11:30:33;5.07;;;4.40;;
13244;SDS011;6689;53.400;12.486;2023-06-22T11:33:01;5.20;;;4.70;;
13244;SDS011;6689;53.400;12.486;2023-06-22T11:35:28;4.80;;;4.05;;
13244;SDS011;6689;53.400;12.486;2023-06-22T11:37:55;5.95;;;4.57;;
13244;SDS011;6689;53.400;12.486;2023-06-22T11:40:23;5.38;;;4.00;;
13244;SDS011;6689;53.400;12.486;2023-06-22T11:42:50;8.70;;;4.72;;
13244;SDS011;6689;53.400;12.486;2023-06-22T11:45:18;5.90;;;4.28;;
13244;SDS011;6689;53.400;12.486;2023-06-22T11:47:47;5.95;;;4.65;;
13244;SDS011;6689;53.400;12.486;2023-06-22T11:50:14;4.85;;;4.20;;
13244;SDS011;6689;53.400;12.486;2023-06-22T11:52:41;4.85;;;4.30;;
13244;SDS011;6689;53.400;12.486;2023-06-22T11:55:11;4.97;;;4.47;;
13244;SDS011;6689;53.400;12.486;2023-06-22T11:57:38;4.90;;;4.40;;
13244;SDS011;6689;53.400;12.486;2023-06-22T12:00:20;4.85;;;3.97;;
13244;SDS011;6689;53.400;12.486;2023-06-22T12:02:50;6.85;;;4.95;;
13244;SDS011;6689;53.400;12.486;2023-06-22T12:05:18;4.80;;;4.25;;
13244;SDS011;6689;53.400;12.486;2023-06-22T12:07:46;7.00;;;5.13;;
13244;SDS011;6689;53.400;12.486;2023-06-22T12:10:14;6.40;;;4.70;;
13244;SDS011;6689;53.400;12.486;2023-06-22T12:12:41;5.30;;;4.85;;
13244;SDS011;6689;53.400;12.486;2023-06-22T12:15:11;5.88;;;5.35;;
13244;SDS011;6689;53.400;12.486;2023-06-22T12:17:38;4.97;;;4.57;;
13244;SDS011;6689;53.400;12.486;2023-06-22T12:20:08;4.97;;;4.57;;
13244;SDS011;6689;53.400;12.486;2023-06-22T12:22:36;6.38;;;5.07;;
13244;SDS011;6689;53.400;12.486;2023-06-22T12:25:04;5.70;;;5.10;;
13244;SDS011;6689;53.400;12.486;2023-06-22T12:27:32;5.20;;;4.63;;
13244;SDS011;6689;53.400;12.486;2023-06-22T12:29:59;6.55;;;5.18;;
13244;SDS011;6689;53.400;12.486;2023-06-22T12:32:27;6.25;;;4.90;;
13244;SDS011;6689;53.400;12.486;2023-06-22T12:34:54;6.10;;;5.50;;
13244;SDS011;6689;53.400;12.486;2023-06-22T12:37:23;6.75;;;6.00;;
13244;SDS011;6689;53.400;12.486;2023-06-22T12:39:51;6.20;;;4.63;;
13244;SDS011;6689;53.400;12.486;2023-06-22T12:42:19;5.93;;;5.38;;
13244;SDS011;6689;53.400;12.486;2023-06-22T12:44:47;6.07;;;4.45;;
13244;SDS011;6689;53.400;12.486;2023-06-22T12:47:14;6.80;;;6.20;;
13244;SDS011;6689;53.400;12.486;2023-06-22T12:49:41;5.65;;;5.15;;
13244;SDS011;6689;53.400;12.486;2023-06-22T12:52:09;9.13;;;5.60;;
13244;SDS011;6689;53.400;12.486;2023-06-22T12:54:38;6.95;;;6.28;;
13244;SDS011;6689;53.400;12.486;2023-06-22T12:57:05;5.95;;;5.35;;
13244;SDS011;6689;53.400;12.486;2023-06-22T12:59:33;6.70;;;6.00;;
13244;SDS011;6689;53.400;12.486;2023-06-22T13:02:00;6.35;;;5.75;;
13244;SDS011;6689;53.400;12.486;2023-06-22T13:04:27;5.93;;;5.38;;
13244;SDS011;6689;53.400;12.486;2023-06-22T13:06:54;7.43;;;6.72;;
13244;SDS011;6689;53.400;12.486;2023-06-22T13:09:21;6.32;;;5.82;;
13244;SDS011;6689;53.400;12.486;2023-06-22T13:11:50;6.10;;;5.53;;
13244;SDS011;6689;53.400;12.486;2023-06-22T13:14:18;9.32;;;5.70;;
13244;SDS011;6689;53.400;12.486;2023-06-22T13:16:45;7.88;;;6.00;;
13244;SDS011;6689;53.400;12.486;2023-06-22T13:19:12;6.90;;;5.80;;
13244;SDS011;6689;53.400;12.486;2023-06-22T13:21:40;10.23;;;6.10;;
13244;SDS011;6689;53.400;12.486;2023-06-22T13:24:08;6.40;;;5.78;;
13244;SDS011;6689;53.400;12.486;2023-06-22T13:26:35;6.88;;;6.18;;
13244;SDS011;6689;53.400;12.486;2023-06-22T13:29:04;8.13;;;6.30;;
13244;SDS011;6689;53.400;12.486;2023-06-22T13:31:31;6.45;;;5.88;;
13244;SDS011;6689;53.400;12.486;2023-06-22T13:33:58;8.38;;;7.38;;
13244;SDS011;6689;53.400;12.486;2023-06-22T13:36:25;6.68;;;6.13;;
13244;SDS011;6689;53.400;12.486;2023-06-22T13:38:55;6.07;;;5.53;;
13244;SDS011;6689;53.400;12.486;2023-06-22T13:41:23;7.18;;;6.47;;
13244;SDS011;6689;53.400;12.486;2023-06-22T13:43:50;7.47;;;6.22;;
13244;SDS011;6689;53.400;12.486;2023-06-22T13:46:19;8.55;;;7.10;;
13244;SDS011;6689;53.400;12.486;2023-06-22T13:48:47;7.40;;;6.80;;
13244;SDS011;6689;53.400;12.486;2023-06-22T13:51:14;6.47;;;5.88;;
13244;SDS011;6689;53.400;12.486;2023-06-22T13:53:42;8.10;;;7.40;;
13244;SDS011;6689;53.400;12.486;2023-06-22T13:56:09;8.52;;;7.05;;
13244;SDS011;6689;53.400;12.486;2023-06-22T13:58:36;8.85;;;6.43;;
13244;SDS011;6689;53.400;12.486;2023-06-22T14:01:03;6.85;;;6.10;;
13244;SDS011;6689;53.400;12.486;2023-06-22T14:03:32;7.95;;;7.30;;
13244;SDS011;6689;53.400;12.486;2023-06-22T14:05:59;7.05;;;6.38;;
13244;SDS011;6689;53.400;12.486;2023-06-22T14:08:27;8.25;;;7.43;;
13244;SDS011;6689;53.400;12.486;2023-06-22T14:10:54;7.38;;;6.65;;
13244;SDS011;6689;53.400;12.486;2023-06-22T14:13:21;7.32;;;6.72;;
13244;SDS011;6689;53.400;12.486;2023-06-22T14:15:49;8.50;;;7.32;;
13244;SDS011;6689;53.400;12.486;2023-06-22T14:18:17;8.60;;;7.15;;
13244;SDS011;6689;53.400;12.486;2023-06-22T14:20:46;9.57;;;6.95;;
13244;SDS011;6689;53.400;12.486;2023-06-22T14:23:13;7.90;;;7.20;;
13244;SDS011;6689;53.400;12.486;2023-06-22T14:25:41;7.47;;;6.57;;
13244;SDS011;6689;53.400;12.486;2023-06-22T14:28:08;7.95;;;7.20;;
13244;SDS011;6689;53.400;12.486;2023-06-22T14:30:35;6.60;;;6.10;;
13244;SDS011;6689;53.400;12.486;2023-06-22T14:33:02;8.40;;;5.97;;
13244;SDS011;6689;53.400;12.486;2023-06-22T14:35:29;10.20;;;6.75;;
13244;SDS011;6689;53.400;12.486;2023-06-22T14:37:58;7.13;;;6.43;;
13244;SDS011;6689;53.400;12.486;2023-06-22T14:40:26;6.50;;;5.90;;
13244;SDS011;6689;53.400;12.486;2023-06-22T14:42:53;6.60;;;5.90;;
13244;SDS011;6689;53.400;12.486;2023-06-22T14:45:21;8.30;;;6.10;;
13244;SDS011;6689;53.400;12.486;2023-06-22T14:47:49;6.72;;;6.10;;
13244;SDS011;6689;53.400;12.486;2023-06-22T14:50:16;6.00;;;5.40;;